createdAt,value
2022-10-16T00:00:16.568Z,98.8
2022-10-16T00:01:17.010Z,98.8
2022-10-16T00:02:16.886Z,98.8
2022-10-16T00:03:17.403Z,98.8
2022-10-16T00:04:16.870Z,98.9
2022-10-16T00:05:17.341Z,98.9
2022-10-16T00:06:16.819Z,98.8
2022-10-16T00:07:17.272Z,98.8
2022-10-16T00:08:16.735Z,98.8
2022-10-16T00:09:17.192Z,98.8
2022-10-16T00:10:16.627Z,98.9
2022-10-16T00:11:17.053Z,98.8
2022-10-16T00:12:16.963Z,98.8
2022-10-16T00:13:17.445Z,99.0
2022-10-16T00:14:16.920Z,98.8
2022-10-16T00:15:17.369Z,98.9
2022-10-16T00:16:16.846Z,98.8
2022-10-16T00:17:17.308Z,98.9
2022-10-16T00:18:16.808Z,98.9
2022-10-16T00:19:17.269Z,98.8
2022-10-16T00:20:16.723Z,98.9
2022-10-16T00:21:17.182Z,98.9
2022-10-16T00:22:17.032Z,98.8
2022-10-16T00:23:16.490Z,98.8
2022-10-16T00:24:16.975Z,98.8
2022-10-16T00:25:16.413Z,98.8
2022-10-16T00:26:16.860Z,98.8
2022-10-16T00:27:17.279Z,98.8
2022-10-16T00:28:16.698Z,98.9
2022-10-16T00:29:17.146Z,98.8
2022-10-16T00:30:16.571Z,98.8
2022-10-16T00:31:17.018Z,98.8
2022-10-16T00:32:16.585Z,98.8
2022-10-16T00:33:17.030Z,98.8
2022-10-16T00:34:16.503Z,98.8
2022-10-16T00:35:17.002Z,98.8
2022-10-16T00:36:16.499Z,98.8
2022-10-16T00:37:16.965Z,98.8
2022-10-16T00:38:17.452Z,98.8
2022-10-16T00:39:16.937Z,98.8
2022-10-16T00:40:17.384Z,98.8
2022-10-16T00:41:16.842Z,98.7
2022-10-16T00:42:16.876Z,98.8
2022-10-16T00:43:17.306Z,98.7
2022-10-16T00:44:16.717Z,98.7
2022-10-16T00:45:17.178Z,98.8
2022-10-16T00:46:16.601Z,98.8
2022-10-16T00:47:17.051Z,98.8
2022-10-16T00:48:16.513Z,98.8
2022-10-16T00:49:16.977Z,98.8
2022-10-16T00:50:16.436Z,98.8
2022-10-16T00:51:16.891Z,98.8
2022-10-16T00:52:17.464Z,98.8
2022-10-16T00:53:16.944Z,98.8
2022-10-16T00:54:17.394Z,98.8
2022-10-16T00:55:16.836Z,98.8
2022-10-16T00:56:17.277Z,98.8
2022-10-16T00:57:16.750Z,98.9
2022-10-16T00:58:17.168Z,98.9
2022-10-16T00:59:16.635Z,99.0
2022-10-16T01:00:17.064Z,99.0
2022-10-16T01:01:16.628Z,99.0
2022-10-16T01:02:16.631Z,99.0
2022-10-16T01:03:17.095Z,99.0
2022-10-16T01:04:16.576Z,99.0
2022-10-16T01:05:17.057Z,99.0
2022-10-16T01:06:16.688Z,99.0
2022-10-16T01:07:17.228Z,99.0
2022-10-16T01:08:16.714Z,99.0
2022-10-16T01:09:17.151Z,99.0
2022-10-16T01:10:16.578Z,99.0
2022-10-16T01:11:17.017Z,99.0
2022-10-16T01:12:16.553Z,99.0
2022-10-16T01:13:16.996Z,98.9
2022-10-16T01:14:16.452Z,98.8
2022-10-16T01:15:16.871Z,98.8
2022-10-16T01:16:17.361Z,98.8
2022-10-16T01:17:16.837Z,98.8
2022-10-16T01:18:17.308Z,98.8
2022-10-16T01:19:16.782Z,98.8
2022-10-16T01:20:17.230Z,98.8
2022-10-16T01:21:16.716Z,98.8
2022-10-16T01:22:16.478Z,98.9
2022-10-16T01:23:16.974Z,98.9
2022-10-16T01:24:16.415Z,99.0
2022-10-16T01:25:16.839Z,98.8
2022-10-16T01:26:17.262Z,98.8
2022-10-16T01:27:16.712Z,98.9
2022-10-16T01:28:17.134Z,98.9
2022-10-16T01:29:16.573Z,98.8
2022-10-16T01:30:17.031Z,98.8
2022-10-16T01:31:16.476Z,98.8
2022-10-16T01:32:16.893Z,98.8
2022-10-16T01:33:17.419Z,98.8
2022-10-16T01:34:16.877Z,98.8
2022-10-16T01:35:17.338Z,98.8
2022-10-16T01:36:16.821Z,98.8
2022-10-16T01:37:17.288Z,98.8
2022-10-16T01:38:16.740Z,99.0
2022-10-16T01:39:17.166Z,99.0
2022-10-16T01:40:16.594Z,98.9
2022-10-16T01:41:17.065Z,98.9
2022-10-16T01:42:16.880Z,99.0
2022-10-16T01:43:17.321Z,99.0
2022-10-16T01:44:16.744Z,99.0
2022-10-16T01:45:17.184Z,99.0
2022-10-16T01:46:16.618Z,99.0
2022-10-16T01:47:17.078Z,99.0
2022-10-16T01:48:16.535Z,99.0
2022-10-16T01:49:17.009Z,98.9
2022-10-16T01:50:16.467Z,98.8
2022-10-16T01:51:16.939Z,98.8
2022-10-16T01:52:17.357Z,98.8
2022-10-16T01:53:16.796Z,98.7
2022-10-16T01:54:17.252Z,98.7
2022-10-16T01:55:16.697Z,98.8
2022-10-16T01:56:17.119Z,98.8
2022-10-16T01:57:16.556Z,98.9
2022-10-16T01:58:16.973Z,98.9
2022-10-16T01:59:17.410Z,98.8
2022-10-16T02:00:16.846Z,98.9
2022-10-16T02:02:17.040Z,99.0
2022-10-16T02:03:16.532Z,98.9
2022-10-16T02:04:17.040Z,99.0
2022-10-16T02:05:16.543Z,99.0
2022-10-16T02:06:17.003Z,99.0
2022-10-16T02:07:16.455Z,99.0
2022-10-16T02:08:16.903Z,99.0
2022-10-16T02:09:17.368Z,99.0
2022-10-16T02:10:16.878Z,99.0
2022-10-16T02:11:17.309Z,99.0
2022-10-16T02:12:16.795Z,98.8
2022-10-16T02:13:17.227Z,98.8
2022-10-16T02:14:16.676Z,98.8
2022-10-16T02:15:17.118Z,98.9
2022-10-16T02:16:16.551Z,98.9
2022-10-16T02:17:17.004Z,98.9
2022-10-16T02:18:16.495Z,98.9
2022-10-16T02:19:16.959Z,98.9
2022-10-16T02:20:17.418Z,98.9
2022-10-16T02:21:16.879Z,98.8
2022-10-16T02:22:16.966Z,98.8
2022-10-16T02:23:17.441Z,98.8
2022-10-16T02:24:16.938Z,98.8
2022-10-16T02:25:17.418Z,98.8
2022-10-16T02:26:16.867Z,98.8
2022-10-16T02:27:17.294Z,98.8
2022-10-16T02:28:16.722Z,98.8
2022-10-16T02:29:17.147Z,98.8
2022-10-16T02:30:16.582Z,98.8
2022-10-16T02:31:17.036Z,98.8
2022-10-16T02:32:16.754Z,98.8
2022-10-16T02:33:17.269Z,98.7
2022-10-16T02:34:16.729Z,98.7
2022-10-16T02:35:17.193Z,98.7
2022-10-16T02:36:16.670Z,98.7
2022-10-16T02:37:17.149Z,98.7
2022-10-16T02:38:16.654Z,98.7
2022-10-16T02:39:17.104Z,98.8
2022-10-16T02:40:20.404Z,98.8
2022-10-16T02:41:17.377Z,98.8
2022-10-16T02:42:16.793Z,98.8
2022-10-16T02:43:17.214Z,98.8
2022-10-16T02:44:16.671Z,98.8
2022-10-16T02:45:16.782Z,98.8
2022-10-16T02:46:17.224Z,98.8
2022-10-16T02:47:16.695Z,98.8
2022-10-16T02:48:17.173Z,98.8
2022-10-16T02:49:16.633Z,98.8
2022-10-16T02:50:17.088Z,98.8
2022-10-16T02:51:16.590Z,98.9
2022-10-16T02:52:17.136Z,98.8
2022-10-16T02:53:16.582Z,98.8
2022-10-16T02:54:17.018Z,98.8
2022-10-16T02:55:16.440Z,98.8
2022-10-16T02:56:16.951Z,98.8
2022-10-16T02:57:17.374Z,98.8
2022-10-16T02:58:16.801Z,98.8
2022-10-16T02:59:17.255Z,98.8
2022-10-16T03:00:16.682Z,98.8
2022-10-16T03:01:17.350Z,98.8
2022-10-16T03:02:16.800Z,98.8
2022-10-16T03:03:17.308Z,98.8
2022-10-16T03:04:16.752Z,98.8
2022-10-16T03:05:17.335Z,98.8
2022-10-16T03:06:16.881Z,98.8
2022-10-16T03:07:17.339Z,98.8
2022-10-16T03:08:16.833Z,98.8
2022-10-16T03:09:17.274Z,98.8
2022-10-16T03:10:16.698Z,98.8
2022-10-16T03:11:17.118Z,98.8
2022-10-16T03:12:16.828Z,98.8
2022-10-16T03:13:17.266Z,98.8
2022-10-16T03:14:16.844Z,98.8
2022-10-16T03:15:17.312Z,98.8
2022-10-16T03:16:16.792Z,98.8
2022-10-16T03:17:17.245Z,98.8
2022-10-16T03:18:16.719Z,98.8
2022-10-16T03:19:17.193Z,98.8
2022-10-16T03:20:16.658Z,98.8
2022-10-16T03:21:17.135Z,98.8
2022-10-16T03:22:16.842Z,98.8
2022-10-16T03:23:17.517Z,98.8
2022-10-16T03:24:16.976Z,98.8
2022-10-16T03:25:17.394Z,98.8
2022-10-16T03:26:16.862Z,98.8
2022-10-16T03:27:17.293Z,98.8
2022-10-16T03:28:16.718Z,98.8
2022-10-16T03:29:17.144Z,99.0
2022-10-16T03:30:16.598Z,98.9
2022-10-16T03:31:17.062Z,98.9
2022-10-16T03:32:16.748Z,98.8
2022-10-16T03:33:17.224Z,98.8
2022-10-16T03:34:16.678Z,98.9
2022-10-16T03:35:17.165Z,98.9
2022-10-16T03:36:16.622Z,99.0
2022-10-16T03:37:17.093Z,98.9
2022-10-16T03:38:16.720Z,98.9
2022-10-16T03:39:17.168Z,98.9
2022-10-16T03:40:16.594Z,99.0
2022-10-16T03:41:17.036Z,99.0
2022-10-16T03:42:16.461Z,99.0
2022-10-16T03:43:16.922Z,99.0
2022-10-16T03:44:17.363Z,99.0
2022-10-16T03:45:16.784Z,99.0
2022-10-16T03:46:17.261Z,99.0
2022-10-16T03:47:16.721Z,99.0
2022-10-16T03:48:17.213Z,99.1
2022-10-16T03:49:16.706Z,99.1
2022-10-16T03:50:17.202Z,99.2
2022-10-16T03:51:16.697Z,99.2
2022-10-16T03:52:16.790Z,99.2
2022-10-16T03:53:17.232Z,99.2
2022-10-16T03:54:16.683Z,99.2
2022-10-16T03:55:17.107Z,99.2
2022-10-16T03:56:16.552Z,99.2
2022-10-16T03:57:17.023Z,99.2
2022-10-16T03:58:16.457Z,99.2
2022-10-16T03:59:16.890Z,99.2
2022-10-16T04:00:17.331Z,99.2
2022-10-16T04:01:16.855Z,99.1
2022-10-16T04:02:17.337Z,99.1
2022-10-16T04:03:16.820Z,99.2
2022-10-16T04:04:17.294Z,99.2
2022-10-16T04:05:16.771Z,99.2
2022-10-16T04:06:17.207Z,99.2
2022-10-16T04:07:16.661Z,99.2
2022-10-16T04:08:17.120Z,99.2
2022-10-16T04:09:16.557Z,99.2
2022-10-16T04:10:17.008Z,99.2
2022-10-16T04:11:16.470Z,99.2
2022-10-16T04:12:17.163Z,99.2
2022-10-16T04:13:16.656Z,99.2
2022-10-16T04:14:17.149Z,99.2
2022-10-16T04:15:16.628Z,99.2
2022-10-16T04:16:17.095Z,99.2
2022-10-16T04:17:16.549Z,99.2
2022-10-16T04:18:17.044Z,99.2
2022-10-16T04:19:16.510Z,99.3
2022-10-16T04:20:16.967Z,99.3
2022-10-16T04:21:17.422Z,99.3
2022-10-16T04:22:17.081Z,99.3
2022-10-16T04:23:16.583Z,99.2
2022-10-16T04:24:17.068Z,99.3
2022-10-16T04:25:16.553Z,99.2
2022-10-16T04:26:16.991Z,99.2
2022-10-16T04:27:16.412Z,99.3
2022-10-16T04:28:16.834Z,99.3
2022-10-16T04:29:17.301Z,99.3
2022-10-16T04:30:16.771Z,99.3
2022-10-16T04:31:17.259Z,99.2
2022-10-16T04:32:16.815Z,99.3
2022-10-16T04:33:17.298Z,99.3
2022-10-16T04:34:16.756Z,99.2
2022-10-16T04:35:17.207Z,99.3
2022-10-16T04:36:16.688Z,99.3
2022-10-16T04:37:17.132Z,99.2
2022-10-16T04:38:16.578Z,99.3
2022-10-16T04:39:17.010Z,99.3
2022-10-16T04:40:16.437Z,99.3
2022-10-16T04:41:16.886Z,99.3
2022-10-16T04:42:16.716Z,99.3
2022-10-16T04:43:17.450Z,99.3
2022-10-16T04:44:16.927Z,99.3
2022-10-16T04:45:17.521Z,99.3
2022-10-16T04:46:16.995Z,99.3
2022-10-16T04:47:16.454Z,99.3
2022-10-16T04:48:16.951Z,99.3
2022-10-16T04:49:17.455Z,99.3
2022-10-16T04:50:16.954Z,99.3
2022-10-16T04:51:17.415Z,99.4
2022-10-16T04:52:17.037Z,99.3
2022-10-16T04:53:16.485Z,99.3
2022-10-16T04:54:16.957Z,99.3
2022-10-16T04:55:17.393Z,99.3
2022-10-16T04:56:16.818Z,99.3
2022-10-16T04:57:17.241Z,99.3
2022-10-16T04:58:16.699Z,99.3
2022-10-16T04:59:17.138Z,99.4
2022-10-16T05:00:16.600Z,99.4
2022-10-16T05:01:17.093Z,99.3
2022-10-16T05:02:16.840Z,99.4
2022-10-16T05:03:17.765Z,99.5
2022-10-16T05:04:17.305Z,99.5
2022-10-16T05:05:16.773Z,99.5
2022-10-16T05:06:17.239Z,99.5
2022-10-16T05:07:16.693Z,99.5
2022-10-16T05:08:17.145Z,99.4
2022-10-16T05:09:16.570Z,99.4
2022-10-16T05:10:17.038Z,99.5
2022-10-16T05:11:16.460Z,99.5
2022-10-16T05:12:16.830Z,99.5
2022-10-16T05:13:17.271Z,99.5
2022-10-16T05:14:16.786Z,99.5
2022-10-16T05:15:17.256Z,99.5
2022-10-16T05:16:16.742Z,99.5
2022-10-16T05:17:17.222Z,99.5
2022-10-16T05:18:16.675Z,99.5
2022-10-16T05:19:28.671Z,99.5
2022-10-16T05:20:16.612Z,99.5
2022-10-16T05:21:17.063Z,99.5
2022-10-16T05:22:16.496Z,99.5
2022-10-16T05:23:16.931Z,99.5
2022-10-16T05:24:17.355Z,99.5
2022-10-16T05:25:16.990Z,99.5
2022-10-16T05:26:16.417Z,99.5
2022-10-16T05:27:16.837Z,99.5
2022-10-16T05:28:17.314Z,99.6
2022-10-16T05:29:16.774Z,99.6
2022-10-16T05:30:17.275Z,99.6
2022-10-16T05:31:16.758Z,99.6
2022-10-16T05:32:17.285Z,99.6
2022-10-16T05:33:16.743Z,99.6
2022-10-16T05:34:17.330Z,99.5
2022-10-16T05:35:16.803Z,99.6
2022-10-16T05:36:17.228Z,99.7
2022-10-16T05:37:16.672Z,99.7
2022-10-16T05:38:17.103Z,99.7
2022-10-16T05:39:16.559Z,99.7
2022-10-16T05:40:17.019Z,99.7
2022-10-16T05:41:16.457Z,99.8
2022-10-16T05:42:16.969Z,99.8
2022-10-16T05:43:17.475Z,99.8
2022-10-16T05:44:17.054Z,99.8
2022-10-16T05:45:16.541Z,99.8
2022-10-16T05:46:17.029Z,99.8
2022-10-16T05:47:16.498Z,99.8
2022-10-16T05:48:16.948Z,99.8
2022-10-16T05:49:17.413Z,99.8
2022-10-16T05:50:16.868Z,99.8
2022-10-16T05:51:17.351Z,99.8
2022-10-16T05:52:16.986Z,99.8
2022-10-16T05:53:16.424Z,99.8
2022-10-16T05:54:16.990Z,99.8
2022-10-16T05:55:16.425Z,99.8
2022-10-16T05:56:16.871Z,99.8
2022-10-16T05:57:17.335Z,99.8
2022-10-16T05:58:16.791Z,99.8
2022-10-16T05:59:17.242Z,99.7
2022-10-16T06:00:16.705Z,99.7
2022-10-16T06:01:17.320Z,99.7
2022-10-16T06:02:16.602Z,99.7
2022-10-16T06:03:17.034Z,99.7
2022-10-16T06:04:16.503Z,99.7
2022-10-16T06:05:16.935Z,99.7
2022-10-16T06:06:17.376Z,99.7
2022-10-16T06:07:16.822Z,99.7
2022-10-16T06:08:17.297Z,99.6
2022-10-16T06:09:16.751Z,99.7
2022-10-16T06:10:17.192Z,99.6
2022-10-16T06:11:16.663Z,99.6
2022-10-16T06:12:17.261Z,99.6
2022-10-16T06:13:16.712Z,99.5
2022-10-16T06:14:17.189Z,99.5
2022-10-16T06:15:16.674Z,99.5
2022-10-16T06:16:17.158Z,99.5
2022-10-16T06:17:16.615Z,99.5
2022-10-16T06:18:17.060Z,99.5
2022-10-16T06:19:16.526Z,99.5
2022-10-16T06:20:17.027Z,99.5
2022-10-16T06:21:16.455Z,99.5
2022-10-16T06:22:16.909Z,99.5
2022-10-16T06:23:17.364Z,99.5
2022-10-16T06:24:16.782Z,99.5
2022-10-16T06:25:17.213Z,99.4
2022-10-16T06:26:16.697Z,99.4
2022-10-16T06:27:17.192Z,99.4
2022-10-16T06:28:16.670Z,99.3
2022-10-16T06:29:17.118Z,99.4
2022-10-16T06:30:16.583Z,99.4
2022-10-16T06:31:17.075Z,99.4
2022-10-16T06:32:16.836Z,99.4
2022-10-16T06:33:17.306Z,99.4
2022-10-16T06:34:16.738Z,99.4
2022-10-16T06:35:17.166Z,99.3
2022-10-16T06:36:16.650Z,99.3
2022-10-16T06:37:17.094Z,99.3
2022-10-16T06:38:16.550Z,99.3
2022-10-16T06:39:16.971Z,99.4
2022-10-16T06:40:17.465Z,99.4
2022-10-16T06:41:16.933Z,99.4
2022-10-16T06:42:17.162Z,99.3
2022-10-16T06:43:16.650Z,99.3
2022-10-16T06:44:17.110Z,99.3
2022-10-16T06:45:16.563Z,99.2
2022-10-16T06:46:17.035Z,99.3
2022-10-16T06:47:16.505Z,99.2
2022-10-16T06:48:16.927Z,99.2
2022-10-16T06:49:17.411Z,99.2
2022-10-16T06:50:16.858Z,99.2
2022-10-16T06:51:17.318Z,99.2
2022-10-16T06:52:16.949Z,99.2
2022-10-16T06:53:17.403Z,99.2
2022-10-16T06:54:16.826Z,99.2
2022-10-16T06:55:17.272Z,99.2
2022-10-16T06:56:16.718Z,99.2
2022-10-16T06:57:17.182Z,99.2
2022-10-16T06:58:16.674Z,99.2
2022-10-16T06:59:17.138Z,99.2
2022-10-16T07:00:16.763Z,99.1
2022-10-16T07:01:17.279Z,99.2
2022-10-16T07:02:16.857Z,99.2
2022-10-16T07:03:17.298Z,99.2
2022-10-16T07:04:16.738Z,99.2
2022-10-16T07:05:17.174Z,99.2
2022-10-16T07:06:16.608Z,99.2
2022-10-16T07:07:17.046Z,99.2
2022-10-16T07:08:16.470Z,99.2
2022-10-16T07:09:17.057Z,99.2
2022-10-16T07:10:16.639Z,99.2
2022-10-16T07:11:17.157Z,99.2
2022-10-16T07:12:16.757Z,99.2
2022-10-16T07:13:17.245Z,99.3
2022-10-16T07:14:16.727Z,99.3
2022-10-16T07:15:17.191Z,99.3
2022-10-16T07:16:16.670Z,99.3
2022-10-16T07:17:17.099Z,99.3
2022-10-16T07:18:16.511Z,99.3
2022-10-16T07:19:16.955Z,99.2
2022-10-16T07:20:17.426Z,99.2
2022-10-16T07:21:16.849Z,99.2
2022-10-16T07:22:16.664Z,99.2
2022-10-16T07:23:17.092Z,99.2
2022-10-16T07:24:16.537Z,99.2
2022-10-16T07:25:17.008Z,99.2
2022-10-16T07:26:16.484Z,99.2
2022-10-16T07:27:16.927Z,99.2
2022-10-16T07:28:17.422Z,99.2
2022-10-16T07:29:16.911Z,99.1
2022-10-16T07:30:17.431Z,99.1
2022-10-16T07:31:16.860Z,99.0
2022-10-16T07:32:16.617Z,99.0
2022-10-16T07:33:17.039Z,99.0
2022-10-16T07:34:16.498Z,98.9
2022-10-16T07:35:16.923Z,98.8
2022-10-16T07:36:17.347Z,98.8
2022-10-16T07:37:16.787Z,98.8
2022-10-16T07:38:17.254Z,98.9
2022-10-16T07:39:16.697Z,98.8
2022-10-16T07:40:17.167Z,98.8
2022-10-16T07:41:16.685Z,98.8
2022-10-16T07:42:17.064Z,98.8
2022-10-16T07:43:16.530Z,98.8
2022-10-16T07:44:17.022Z,98.8
2022-10-16T07:45:16.476Z,98.7
2022-10-16T07:46:16.930Z,98.7
2022-10-16T07:47:17.403Z,98.6
2022-10-16T07:48:16.829Z,98.5
2022-10-16T07:49:17.272Z,98.5
2022-10-16T07:50:16.707Z,98.5
2022-10-16T07:51:17.227Z,98.4
2022-10-16T07:52:16.668Z,98.3
2022-10-16T07:53:17.147Z,98.2
2022-10-16T07:54:16.605Z,98.0
2022-10-16T07:55:17.103Z,97.9
2022-10-16T07:56:16.604Z,98.0
2022-10-16T07:57:17.067Z,98.0
2022-10-16T07:58:16.530Z,98.0
2022-10-16T07:59:16.995Z,98.0
2022-10-16T08:00:16.456Z,97.5
2022-10-16T08:01:17.046Z,97.7
2022-10-16T08:02:17.383Z,97.7
2022-10-16T08:03:16.841Z,97.2
2022-10-16T08:04:17.266Z,97.2
2022-10-16T08:05:16.705Z,97.1
2022-10-16T08:06:17.146Z,97.0
2022-10-16T08:07:16.591Z,96.6
2022-10-16T08:08:17.072Z,96.5
2022-10-16T08:09:16.578Z,96.6
2022-10-16T08:10:17.067Z,96.6
2022-10-16T08:11:16.557Z,96.2
2022-10-16T08:12:17.349Z,96.5
2022-10-16T08:13:16.834Z,96.4
2022-10-16T08:14:17.359Z,96.8
2022-10-16T08:15:16.790Z,96.4
2022-10-16T08:16:17.216Z,96.5
2022-10-16T08:17:16.683Z,96.5
2022-10-16T08:18:17.120Z,96.2
2022-10-16T08:19:16.546Z,96.3
2022-10-16T08:20:16.998Z,96.4
2022-10-16T08:21:21.729Z,96.2
2022-10-16T08:22:17.142Z,96.7
2022-10-16T08:23:16.616Z,96.4
2022-10-16T08:24:17.066Z,96.2
2022-10-16T08:25:16.547Z,96.2
2022-10-16T08:26:17.021Z,95.8
2022-10-16T08:27:16.492Z,95.9
2022-10-16T08:28:16.947Z,95.2
2022-10-16T08:29:17.410Z,95.4
2022-10-16T08:30:16.879Z,95.5
2022-10-16T08:32:16.810Z,94.2
2022-10-16T08:33:17.288Z,94.3
2022-10-16T08:34:16.730Z,94.4
2022-10-16T08:35:17.191Z,93.5
2022-10-16T08:36:16.610Z,93.2
2022-10-16T08:37:17.064Z,93.7
2022-10-16T08:38:16.513Z,93.0
2022-10-16T08:39:16.961Z,92.5
2022-10-16T08:40:17.541Z,92.3
2022-10-16T08:41:17.034Z,92.6
2022-10-16T08:42:16.776Z,91.9
2022-10-16T08:43:17.237Z,91.3
2022-10-16T08:44:16.707Z,91.4
2022-10-16T08:45:17.152Z,91.7
2022-10-16T08:46:16.585Z,92.1
2022-10-16T08:47:17.042Z,92.7
2022-10-16T08:48:16.485Z,92.2
2022-10-16T08:49:16.937Z,91.4
2022-10-16T08:50:17.364Z,91.6
2022-10-16T08:51:16.881Z,91.8
2022-10-16T08:52:17.142Z,91.3
2022-10-16T08:53:16.587Z,92.2
2022-10-16T08:54:17.039Z,91.2
2022-10-16T08:55:16.532Z,91.7
2022-10-16T08:56:16.991Z,91.5
2022-10-16T08:57:24.467Z,91.8
2022-10-16T08:58:17.050Z,92.1
2022-10-16T08:59:16.496Z,92.3
2022-10-16T09:00:16.948Z,91.5
2022-10-16T09:01:17.623Z,91.6
2022-10-16T09:02:16.948Z,91.3
2022-10-16T09:03:17.415Z,91.3
2022-10-16T09:04:16.833Z,90.2
2022-10-16T09:05:17.261Z,90.3
2022-10-16T09:06:16.749Z,90.4
2022-10-16T09:07:17.228Z,90.2
2022-10-16T09:08:16.715Z,90.2
2022-10-16T09:09:17.169Z,90.2
2022-10-16T09:10:16.634Z,90.2
2022-10-16T09:11:17.135Z,89.9
2022-10-16T09:12:16.454Z,89.5
2022-10-16T09:13:16.883Z,90.0
2022-10-16T09:14:17.345Z,90.5
2022-10-16T09:15:16.763Z,90.0
2022-10-16T09:16:17.217Z,89.3
2022-10-16T09:17:16.654Z,89.2
2022-10-16T09:18:17.132Z,89.8
2022-10-16T09:19:16.570Z,88.9
2022-10-16T09:20:17.011Z,89.5
2022-10-16T09:21:16.483Z,88.9
2022-10-16T09:22:16.582Z,89.6
2022-10-16T09:23:17.071Z,89.8
2022-10-16T09:24:16.539Z,89.9
2022-10-16T09:25:17.020Z,89.2
2022-10-16T09:26:16.614Z,89.5
2022-10-16T09:27:17.105Z,89.1
2022-10-16T09:28:16.561Z,89.0
2022-10-16T09:29:16.985Z,88.8
2022-10-16T09:30:16.406Z,88.6
2022-10-16T09:31:16.878Z,88.9
2022-10-16T09:32:16.565Z,89.0
2022-10-16T09:33:17.014Z,89.1
2022-10-16T09:34:16.459Z,89.2
2022-10-16T09:35:16.952Z,88.8
2022-10-16T09:36:17.411Z,89.1
2022-10-16T09:37:16.877Z,89.0
2022-10-16T09:38:17.362Z,89.0
2022-10-16T09:39:16.853Z,88.8
2022-10-16T09:40:17.351Z,89.1
2022-10-16T09:41:16.820Z,89.2
2022-10-16T09:42:16.692Z,89.4
2022-10-16T09:43:17.118Z,89.3
2022-10-16T09:44:16.614Z,89.5
2022-10-16T09:45:17.085Z,89.0
2022-10-16T09:46:16.506Z,89.2
2022-10-16T09:47:16.931Z,89.9
2022-10-16T09:48:17.404Z,89.2
2022-10-16T09:49:16.897Z,89.8
2022-10-16T09:50:17.531Z,90.2
2022-10-16T09:51:17.043Z,89.2
2022-10-16T09:52:17.363Z,90.4
2022-10-16T09:53:16.833Z,90.2
2022-10-16T09:54:17.279Z,89.8
2022-10-16T09:55:16.737Z,89.0
2022-10-16T09:56:17.202Z,89.7
2022-10-16T09:57:16.634Z,89.3
2022-10-16T09:58:17.076Z,89.2
2022-10-16T09:59:16.537Z,89.3
2022-10-16T10:00:17.086Z,89.9
2022-10-16T10:01:16.560Z,89.4
2022-10-16T10:02:17.164Z,89.2
2022-10-16T10:03:16.598Z,88.8
2022-10-16T10:04:17.021Z,88.2
2022-10-16T10:05:16.501Z,89.0
2022-10-16T10:06:16.975Z,88.1
2022-10-16T10:07:17.438Z,89.0
2022-10-16T10:08:16.929Z,88.6
2022-10-16T10:09:17.394Z,88.8
2022-10-16T10:10:16.885Z,88.1
2022-10-16T10:11:17.385Z,88.3
2022-10-16T10:12:16.639Z,88.2
2022-10-16T10:13:17.091Z,87.4
2022-10-16T10:14:16.592Z,88.0
2022-10-16T10:15:17.022Z,88.4
2022-10-16T10:16:16.464Z,89.0
2022-10-16T10:17:16.915Z,88.3
2022-10-16T10:18:17.372Z,88.5
2022-10-16T10:19:16.823Z,88.0
2022-10-16T10:20:17.313Z,87.8
2022-10-16T10:21:16.807Z,87.8
2022-10-16T10:22:16.946Z,87.2
2022-10-16T10:23:17.426Z,87.7
2022-10-16T10:24:16.894Z,88.2
2022-10-16T10:25:17.390Z,87.5
2022-10-16T10:26:16.875Z,86.5
2022-10-16T10:27:17.376Z,87.0
2022-10-16T10:28:16.864Z,87.0
2022-10-16T10:29:17.294Z,86.6
2022-10-16T10:31:17.170Z,86.8
2022-10-16T10:32:16.861Z,86.5
2022-10-16T10:33:17.395Z,86.5
2022-10-16T10:34:16.904Z,86.2
2022-10-16T10:35:17.376Z,86.4
2022-10-16T10:36:16.870Z,86.6
2022-10-16T10:37:17.358Z,85.7
2022-10-16T10:38:16.837Z,85.9
2022-10-16T10:39:17.387Z,86.2
2022-10-16T10:40:16.879Z,86.6
2022-10-16T10:41:17.308Z,86.8
2022-10-16T10:42:16.490Z,86.3
2022-10-16T10:43:16.942Z,85.7
2022-10-16T10:44:17.359Z,86.1
2022-10-16T10:45:16.846Z,87.1
2022-10-16T10:46:17.309Z,85.8
2022-10-16T10:47:16.764Z,86.6
2022-10-16T10:48:17.426Z,86.6
2022-10-16T10:49:16.918Z,86.2
2022-10-16T10:50:17.390Z,86.2
2022-10-16T10:51:16.834Z,86.2
2022-10-16T10:52:16.510Z,86.4
2022-10-16T10:53:17.002Z,87.8
2022-10-16T10:54:16.499Z,86.7
2022-10-16T10:55:16.980Z,85.8
2022-10-16T10:56:16.415Z,85.4
2022-10-16T10:57:16.884Z,86.1
2022-10-16T10:58:17.387Z,86.6
2022-10-16T10:59:16.838Z,85.6
2022-10-16T11:00:17.261Z,85.8
2022-10-16T11:01:16.729Z,85.2
2022-10-16T11:02:17.430Z,85.5
2022-10-16T11:03:16.927Z,85.3
2022-10-16T11:04:17.385Z,85.8
2022-10-16T11:05:16.875Z,84.7
2022-10-16T11:06:17.377Z,85.4
2022-10-16T11:07:16.848Z,84.8
2022-10-16T11:08:17.332Z,85.3
2022-10-16T11:09:16.830Z,86.2
2022-10-16T11:10:17.285Z,84.4
2022-10-16T11:11:16.697Z,84.8
2022-10-16T11:12:17.141Z,84.7
2022-10-16T11:13:16.591Z,85.0
2022-10-16T11:14:17.040Z,85.2
2022-10-16T11:15:16.469Z,85.2
2022-10-16T11:16:21.801Z,85.6
2022-10-16T11:17:17.320Z,85.4
2022-10-16T11:18:16.769Z,85.4
2022-10-16T11:19:17.251Z,85.1
2022-10-16T11:20:16.744Z,85.5
2022-10-16T11:21:17.193Z,84.8
2022-10-16T11:22:16.839Z,85.2
2022-10-16T11:23:17.340Z,84.5
2022-10-16T11:24:16.804Z,85.2
2022-10-16T11:25:17.259Z,85.7
2022-10-16T11:26:16.689Z,85.4
2022-10-16T11:27:17.113Z,85.5
2022-10-16T11:28:16.578Z,84.6
2022-10-16T11:29:17.110Z,85.1
2022-10-16T11:30:16.591Z,84.4
2022-10-16T11:31:17.075Z,84.9
2022-10-16T11:32:16.702Z,84.3
2022-10-16T11:33:17.183Z,84.7
2022-10-16T11:34:16.655Z,84.2
2022-10-16T11:35:17.177Z,84.5
2022-10-16T11:36:16.625Z,85.2
2022-10-16T11:37:17.080Z,83.7
2022-10-16T11:38:16.558Z,84.2
2022-10-16T11:39:17.059Z,84.1
2022-10-16T11:40:16.497Z,84.9
2022-10-16T11:41:16.918Z,83.5
2022-10-16T11:42:16.693Z,84.3
2022-10-16T11:43:17.111Z,83.8
2022-10-16T11:44:16.575Z,83.9
2022-10-16T11:45:16.998Z,83.7
2022-10-16T11:46:16.431Z,84.2
2022-10-16T11:47:47.061Z,84.3
2022-10-16T11:48:17.419Z,83.9
2022-10-16T11:49:16.892Z,83.7
2022-10-16T11:50:17.949Z,84.8
2022-10-16T11:51:17.395Z,84.7
2022-10-16T11:52:17.379Z,83.3
2022-10-16T11:53:16.966Z,83.4
2022-10-16T11:54:17.567Z,83.9
2022-10-16T11:55:17.129Z,83.4
2022-10-16T11:56:16.561Z,83.6
2022-10-16T11:57:17.000Z,84.5
2022-10-16T11:58:16.436Z,84.5
2022-10-16T11:59:16.871Z,84.1
2022-10-16T12:00:17.340Z,83.8
2022-10-16T12:01:16.872Z,83.3
2022-10-16T12:02:17.140Z,83.7
2022-10-16T12:03:16.722Z,82.9
2022-10-16T12:04:17.250Z,83.5
2022-10-16T12:05:16.717Z,82.0
2022-10-16T12:06:17.224Z,82.2
2022-10-16T12:07:16.685Z,82.8
2022-10-16T12:08:17.184Z,83.1
2022-10-16T12:09:16.653Z,82.0
2022-10-16T12:10:17.192Z,82.4
2022-10-16T12:11:16.654Z,82.3
2022-10-16T12:12:17.085Z,82.4
2022-10-16T12:13:16.531Z,82.8
2022-10-16T12:14:16.973Z,82.2
2022-10-16T12:15:40.847Z,83.0
2022-10-16T12:16:17.397Z,82.2
2022-10-16T12:17:16.878Z,82.2
2022-10-16T12:18:17.360Z,81.5
2022-10-16T12:19:16.806Z,79.8
2022-10-16T12:20:17.296Z,79.5
2022-10-16T12:21:16.780Z,79.2
2022-10-16T12:22:17.353Z,79.6
2022-10-16T12:23:16.860Z,79.8
2022-10-16T12:24:17.290Z,79.4
2022-10-16T12:25:16.739Z,80.7
2022-10-16T12:26:17.158Z,80.5
2022-10-16T12:27:16.614Z,80.8
2022-10-16T12:28:17.078Z,80.7
2022-10-16T12:29:16.554Z,80.2
2022-10-16T12:30:17.024Z,79.2
2022-10-16T12:31:16.497Z,79.7
2022-10-16T12:32:45.495Z,79.2
2022-10-16T12:33:16.466Z,80.3
2022-10-16T12:34:16.928Z,80.0
2022-10-16T12:35:17.463Z,80.0
2022-10-16T12:36:16.953Z,80.4
2022-10-16T12:37:17.414Z,80.2
2022-10-16T12:38:16.901Z,80.5
2022-10-16T12:39:17.341Z,80.2
2022-10-16T12:40:16.777Z,80.1
2022-10-16T12:41:17.198Z,81.6
2022-10-16T12:42:16.940Z,80.6
2022-10-16T12:43:17.420Z,80.2
2022-10-16T12:44:16.856Z,80.3
2022-10-16T12:45:17.344Z,80.5
2022-10-16T12:46:16.808Z,80.2
2022-10-16T12:47:20.019Z,80.8
2022-10-16T12:48:16.532Z,80.4
2022-10-16T12:49:17.018Z,81.4
2022-10-16T12:50:17.688Z,81.0
2022-10-16T12:51:17.183Z,81.3
2022-10-16T12:52:16.481Z,81.2
2022-10-16T12:53:16.913Z,81.0
2022-10-16T12:54:17.344Z,80.9
2022-10-16T12:55:16.859Z,80.8
2022-10-16T12:56:17.291Z,81.3
2022-10-16T12:57:16.717Z,81.8
2022-10-16T12:58:17.135Z,82.3
2022-10-16T12:59:16.610Z,82.2
2022-10-16T13:00:17.252Z,82.0
2022-10-16T13:01:16.800Z,81.7
2022-10-16T13:02:17.455Z,82.2
2022-10-16T13:03:16.917Z,82.8
2022-10-16T13:04:17.366Z,83.2
2022-10-16T13:05:16.856Z,84.0
2022-10-16T13:06:17.340Z,83.9
2022-10-16T13:07:16.770Z,83.7
2022-10-16T13:08:17.219Z,83.8
2022-10-16T13:09:16.689Z,83.8
2022-10-16T13:10:17.118Z,84.1
2022-10-16T13:11:16.544Z,83.9
2022-10-16T13:12:17.348Z,83.3
2022-10-16T13:13:16.837Z,83.0
2022-10-16T13:14:17.345Z,82.8
2022-10-16T13:15:16.807Z,82.9
2022-10-16T13:16:17.297Z,83.0
2022-10-16T13:17:16.769Z,83.2
2022-10-16T13:18:17.242Z,82.3
2022-10-16T13:19:16.724Z,83.0
2022-10-16T13:20:17.219Z,82.7
2022-10-16T13:21:16.681Z,82.6